createdAt,value
2019-05-02T00:02:11.176Z,66.43
2019-05-02T00:04:37.880Z,78.87
2019-05-02T00:07:08.766Z,67.43
2019-05-02T00:09:36.438Z,60.57
2019-05-02T00:12:05.276Z,57.97
2019-05-02T00:14:32.771Z,67.03
2019-05-02T00:16:59.448Z,61.90
2019-05-02T00:19:26.105Z,63.23
2019-05-02T00:21:52.723Z,68.80
2019-05-02T00:24:19.608Z,73.73
2019-05-02T00:26:46.353Z,74.73
2019-05-02T00:29:13.032Z,69.53
2019-05-02T00:31:41.873Z,74.70
2019-05-02T00:34:08.232Z,66.87
2019-05-02T00:36:35.002Z,75.40
2019-05-02T00:39:01.653Z,72.10
2019-05-02T00:41:28.313Z,82.50
2019-05-02T00:43:54.968Z,79.77
2019-05-02T00:46:21.715Z,83.63
2019-05-02T00:48:54.308Z,77.80
2019-05-02T00:51:21.994Z,78.57
2019-05-02T00:53:49.494Z,84.20
2019-05-02T00:56:15.647Z,89.10
2019-05-02T00:58:42.387Z,76.80
2019-05-02T01:01:30.885Z,76.30
2019-05-02T01:06:49.265Z,84.60
2019-05-02T01:09:15.676Z,83.47
2019-05-02T01:11:42.358Z,80.63
2019-05-02T01:14:08.951Z,83.77
2019-05-02T01:16:35.615Z,74.50
2019-05-02T01:19:02.340Z,81.23
2019-05-02T01:21:29.023Z,80.63
2019-05-02T01:23:58.857Z,77.07
2019-05-02T01:26:29.280Z,80.57
2019-05-02T01:29:05.175Z,72.70
2019-05-02T01:31:33.737Z,77.47
2019-05-02T01:34:13.001Z,76.37
2019-05-02T01:36:57.068Z,76.30
2019-05-02T01:39:23.822Z,76.23
2019-05-02T01:41:50.471Z,81.17
2019-05-02T01:44:17.140Z,75.70
2019-05-02T01:46:43.772Z,79.20
2019-05-02T01:49:10.432Z,87.30
2019-05-02T01:51:41.782Z,75.67
2019-05-02T01:54:09.941Z,81.77
2019-05-02T01:56:34.925Z,77.80
2019-05-02T01:59:01.692Z,78.20
2019-05-02T02:01:28.483Z,68.07
2019-05-02T02:03:55.479Z,84.73
2019-05-02T02:06:22.199Z,88.93
2019-05-02T02:08:48.869Z,80.53
2019-05-02T02:11:15.558Z,75.13
2019-05-02T02:13:42.440Z,75.13
2019-05-02T02:16:09.069Z,77.00
2019-05-02T02:18:37.625Z,69.13
2019-05-02T02:21:08.854Z,78.67
2019-05-02T02:23:44.952Z,75.50
2019-05-02T02:26:13.913Z,75.10
2019-05-02T02:28:40.559Z,79.77
2019-05-02T02:31:07.985Z,67.33
2019-05-02T02:33:41.104Z,67.43
2019-05-02T02:36:03.557Z,71.37
2019-05-02T02:38:33.519Z,70.20
2019-05-02T02:40:58.913Z,76.57
2019-05-02T02:43:34.091Z,80.63
2019-05-02T02:46:12.773Z,71.93
2019-05-02T02:48:40.664Z,79.60
2019-05-02T02:51:08.124Z,79.10
2019-05-02T02:53:34.780Z,77.70
2019-05-02T02:56:04.511Z,71.03
2019-05-02T02:58:44.558Z,82.33
2019-05-02T03:01:03.389Z,83.33
2019-05-02T03:03:34.528Z,79.83
2019-05-02T03:06:05.238Z,73.27
2019-05-02T03:08:27.148Z,77.40
2019-05-02T03:10:53.994Z,78.13
2019-05-02T03:13:25.829Z,78.30
2019-05-02T03:16:11.814Z,74.37
2019-05-02T03:18:40.578Z,81.27
2019-05-02T03:21:07.045Z,80.27
2019-05-02T03:23:33.704Z,82.90
2019-05-02T03:26:00.342Z,73.23
2019-05-02T03:28:27.168Z,81.27
2019-05-02T03:30:54.346Z,83.73
2019-05-02T03:33:21.009Z,82.57
2019-05-02T03:35:48.963Z,85.40
2019-05-02T03:38:16.310Z,81.83
2019-05-02T03:40:43.300Z,88.33
2019-05-02T03:43:09.925Z,85.53
2019-05-02T03:45:40.287Z,83.50
2019-05-02T03:48:05.728Z,88.47
2019-05-02T03:50:35.253Z,78.63
2019-05-02T03:53:01.356Z,87.63
2019-05-02T03:55:30.883Z,90.30
2019-05-02T03:57:56.501Z,85.93
2019-05-02T04:00:24.233Z,90.03
2019-05-02T04:02:59.042Z,83.87
2019-05-02T04:05:20.074Z,80.93
2019-05-02T04:07:46.721Z,88.33
2019-05-02T04:10:25.877Z,87.57
2019-05-02T04:12:58.084Z,88.10
2019-05-02T04:15:21.350Z,86.97
2019-05-02T04:17:47.989Z,87.57
2019-05-02T04:20:14.823Z,83.37
2019-05-02T04:22:48.578Z,85.27
2019-05-02T04:25:10.890Z,85.73
2019-05-02T04:27:37.522Z,91.53
2019-05-02T04:30:11.453Z,78.97
2019-05-02T04:32:33.817Z,92.13
2019-05-02T04:35:00.557Z,80.50
2019-05-02T04:37:27.247Z,80.20
2019-05-02T04:39:58.169Z,74.30
2019-05-02T04:42:23.363Z,80.67
2019-05-02T04:45:12.175Z,83.90
2019-05-02T04:47:21.969Z,85.03
2019-05-02T04:49:51.516Z,83.37
2019-05-02T04:52:18.282Z,80.73
2019-05-02T04:54:44.144Z,83.33
2019-05-02T04:57:10.838Z,83.23
2019-05-02T04:59:39.491Z,84.70
2019-05-02T05:02:08.698Z,68.10
2019-05-02T05:04:42.413Z,80.00
2019-05-02T05:07:04.267Z,75.87
2019-05-02T05:09:30.924Z,77.30
2019-05-02T05:11:58.960Z,73.23
2019-05-02T05:14:31.485Z,81.97
2019-05-02T05:16:56.125Z,70.77
2019-05-02T05:19:27.519Z,74.10
2019-05-02T05:21:56.100Z,73.97
2019-05-02T05:24:24.878Z,79.40
2019-05-02T05:26:52.083Z,74.43
2019-05-02T05:29:23.109Z,78.03
2019-05-02T05:31:48.244Z,79.70
2019-05-02T05:34:16.940Z,77.30
2019-05-02T05:36:43.613Z,71.30
2019-05-02T05:39:11.704Z,81.37
2019-05-02T05:41:42.664Z,68.93
2019-05-02T05:44:07.838Z,69.17
2019-05-02T05:46:40.990Z,70.80
2019-05-02T05:49:03.536Z,64.60
2019-05-02T05:51:30.291Z,66.47
2019-05-02T05:54:02.758Z,68.63
2019-05-02T05:56:27.363Z,64.87
2019-05-02T05:58:54.053Z,59.23
2019-05-02T06:01:25.819Z,63.53
2019-05-02T06:03:49.249Z,60.80
2019-05-02T06:06:22.441Z,65.27
2019-05-02T06:08:44.393Z,62.83
2019-05-02T06:11:14.803Z,59.77
2019-05-02T06:13:43.009Z,60.00
2019-05-02T06:16:10.482Z,63.07
2019-05-02T06:18:41.855Z,62.73
2019-05-02T06:21:08.843Z,56.90
2019-05-02T06:23:36.360Z,60.53
2019-05-02T06:26:07.665Z,57.00
2019-05-02T06:28:31.029Z,55.77
2019-05-02T06:31:02.048Z,56.83
2019-05-02T06:33:30.416Z,58.37
2019-05-02T06:36:14.353Z,62.10
2019-05-02T06:38:41.041Z,57.87
2019-05-02T06:41:07.801Z,63.80
2019-05-02T06:43:34.556Z,61.93
2019-05-02T06:46:01.360Z,55.43
2019-05-02T06:48:28.085Z,49.03
2019-05-02T06:50:56.489Z,55.60
2019-05-02T06:53:24.372Z,47.90
2019-05-02T06:55:51.123Z,54.80
2019-05-02T06:58:17.904Z,47.23
2019-05-02T07:00:56.702Z,49.07
2019-05-02T07:03:13.269Z,44.57
2019-05-02T07:05:40.228Z,48.97
2019-05-02T07:08:12.095Z,52.60
2019-05-02T07:10:44.418Z,45.87
2019-05-02T07:13:10.669Z,42.00
2019-05-02T07:15:41.066Z,46.53
2019-05-02T07:18:10.569Z,46.07
2019-05-02T07:20:40.481Z,47.03
2019-05-02T07:23:10.562Z,49.03
2019-05-02T07:25:39.138Z,52.60
2019-05-02T07:28:04.636Z,53.30
2019-05-02T07:30:35.078Z,49.90
2019-05-02T07:33:02.316Z,49.53
2019-05-02T07:35:29.205Z,42.13
2019-05-02T07:37:55.932Z,45.47
2019-05-02T07:40:22.695Z,47.93
2019-05-02T07:42:49.521Z,47.17
2019-05-02T07:45:16.635Z,51.33
2019-05-02T07:47:43.330Z,51.80
2019-05-02T07:50:11.941Z,47.87
2019-05-02T07:52:41.126Z,43.70
2019-05-02T07:55:10.092Z,49.90
2019-05-02T07:57:36.092Z,53.50
2019-05-02T08:00:08.996Z,53.00
2019-05-02T08:02:35.698Z,55.80
2019-05-02T08:05:02.829Z,41.90
2019-05-02T08:07:34.249Z,46.73
2019-05-02T08:09:57.917Z,47.33
2019-05-02T08:12:24.656Z,48.63
2019-05-02T08:14:51.228Z,48.73
2019-05-02T08:17:19.348Z,49.97
2019-05-02T08:19:46.134Z,52.30
2019-05-02T08:22:14.563Z,47.67
2019-05-02T08:24:41.240Z,44.90
2019-05-02T08:27:15.621Z,41.63
2019-05-02T08:29:42.381Z,46.77
2019-05-02T08:32:09.306Z,44.30
2019-05-02T08:34:35.904Z,39.80
2019-05-02T08:37:03.679Z,43.67
2019-05-02T08:39:33.768Z,41.03
2019-05-02T08:41:59.560Z,42.70
2019-05-02T08:44:27.538Z,45.90
2019-05-02T08:46:54.205Z,43.33
2019-05-02T08:49:20.828Z,48.53
2019-05-02T08:51:49.253Z,44.70
2019-05-02T08:54:15.876Z,52.73
2019-05-02T08:56:42.519Z,40.27
2019-05-02T08:59:09.240Z,50.50
2019-05-02T09:01:35.937Z,41.57
2019-05-02T09:04:03.201Z,42.60
2019-05-02T09:06:29.839Z,45.40
2019-05-02T09:08:56.496Z,43.67
2019-05-02T09:11:23.137Z,39.10
2019-05-02T09:13:49.808Z,38.77
2019-05-02T09:16:16.436Z,32.43
2019-05-02T09:18:50.638Z,30.40
2019-05-02T09:21:12.562Z,36.13
2019-05-02T09:23:41.184Z,32.77
2019-05-02T09:26:07.716Z,32.17
2019-05-02T09:28:34.346Z,33.00
2019-05-02T09:31:02.868Z,32.73
2019-05-02T09:33:32.079Z,33.97
2019-05-02T09:35:57.959Z,32.03
2019-05-02T09:38:24.725Z,29.73
2019-05-02T09:40:54.605Z,29.17
2019-05-02T09:43:22.837Z,33.37
2019-05-02T09:45:51.850Z,26.00
2019-05-02T09:48:22.743Z,30.07
2019-05-02T09:50:46.808Z,31.10
2019-05-02T09:53:20.635Z,33.23
2019-05-02T09:55:49.563Z,31.40
2019-05-02T09:58:16.203Z,27.47
2019-05-02T10:00:57.881Z,26.57
2019-05-02T10:03:24.991Z,27.47
2019-05-02T10:05:52.350Z,29.80
2019-05-02T10:08:19.077Z,19.60
2019-05-02T10:10:46.237Z,20.70
2019-05-02T10:13:13.022Z,25.57
2019-05-02T10:15:41.948Z,20.53
2019-05-02T10:18:11.374Z,31.40
2019-05-02T10:20:36.824Z,31.77
2019-05-02T10:23:03.909Z,30.73
2019-05-02T10:25:38.338Z,30.17
2019-05-02T10:27:59.009Z,36.03
2019-05-02T10:30:27.812Z,36.23
2019-05-02T10:32:57.203Z,38.77
2019-05-02T10:35:40.606Z,33.23
2019-05-02T10:38:09.564Z,35.93
2019-05-02T10:40:34.315Z,37.07
2019-05-02T10:43:02.769Z,35.37
2019-05-02T10:45:31.722Z,31.40
2019-05-02T10:47:58.276Z,34.73
2019-05-02T10:50:29.797Z,39.60
2019-05-02T10:52:56.424Z,39.10
2019-05-02T10:55:24.265Z,31.20
2019-05-02T10:57:52.732Z,37.37
2019-05-02T11:00:23.135Z,33.20
2019-05-02T11:03:02.547Z,35.90
2019-05-02T11:05:31.836Z,34.87
2019-05-02T11:08:04.828Z,32.37
2019-05-02T11:10:27.151Z,35.30
2019-05-02T11:13:12.486Z,34.57
2019-05-02T11:15:57.898Z,35.53
2019-05-02T11:18:39.353Z,23.80
2019-05-02T11:20:59.075Z,31.40
2019-05-02T11:23:25.409Z,21.73
2019-05-02T11:25:52.642Z,26.10
2019-05-02T11:28:19.476Z,24.67
2019-05-02T11:30:46.308Z,27.60
2019-05-02T11:33:13.506Z,21.00
2019-05-02T11:35:41.828Z,21.50
2019-05-02T11:38:09.183Z,16.27
2019-05-02T11:40:36.189Z,14.50
2019-05-02T11:43:06.809Z,25.57
2019-05-02T11:45:32.360Z,23.83
2019-05-02T11:48:01.784Z,17.73
2019-05-02T11:50:31.956Z,17.80
2019-05-02T11:52:56.240Z,14.90
2019-05-02T11:55:24.731Z,19.43
2019-05-02T11:57:52.325Z,14.00
2019-05-02T12:00:19.188Z,14.07
2019-05-02T12:02:49.073Z,14.50
2019-05-02T12:05:22.164Z,14.67
2019-05-02T12:07:48.959Z,14.40
2019-05-02T12:10:15.899Z,15.30
2019-05-02T12:12:42.990Z,14.73
2019-05-02T12:15:11.984Z,13.67
2019-05-02T12:17:38.804Z,11.80
2019-05-02T12:20:05.470Z,10.70
2019-05-02T12:22:32.541Z,11.50
2019-05-02T12:24:59.452Z,9.60
2019-05-02T12:27:26.091Z,14.27
2019-05-02T12:29:57.777Z,14.20
2019-05-02T12:32:22.449Z,12.50
2019-05-02T12:34:49.356Z,12.03
2019-05-02T12:37:16.012Z,13.47
2019-05-02T12:39:42.798Z,14.00
2019-05-02T12:42:09.668Z,22.13
2019-05-02T12:44:36.488Z,15.43
2019-05-02T12:47:03.895Z,19.20
2019-05-02T12:49:32.329Z,15.27
2019-05-02T12:52:18.778Z,13.60
2019-05-02T12:54:45.474Z,15.77
2019-05-02T12:57:12.577Z,14.57
2019-05-02T12:59:39.264Z,14.37
2019-05-02T13:02:07.985Z,13.20
2019-05-02T13:04:34.656Z,13.70
2019-05-02T13:07:02.167Z,12.60
2019-05-02T13:09:29.044Z,16.27
2019-05-02T13:12:00.097Z,15.07
2019-05-02T13:14:28.694Z,16.13
2019-05-02T13:17:01.612Z,14.90
2019-05-02T13:19:37.214Z,12.60
2019-05-02T13:22:13.074Z,12.80
2019-05-02T13:24:42.349Z,12.10
2019-05-02T13:27:12.605Z,12.03
2019-05-02T13:29:39.421Z,16.50
2019-05-02T13:32:18.687Z,13.40
2019-05-02T13:35:02.475Z,13.70
2019-05-02T13:37:29.360Z,11.47
2019-05-02T13:40:06.966Z,11.50
2019-05-02T13:42:33.803Z,10.23
2019-05-02T13:45:14.695Z,11.73
2019-05-02T13:47:42.635Z,9.10
2019-05-02T13:50:09.837Z,7.87
2019-05-02T13:52:36.488Z,8.57
2019-05-02T13:55:09.335Z,10.67
2019-05-02T13:57:41.789Z,11.00
2019-05-02T14:00:06.040Z,9.83
2019-05-02T14:02:38.539Z,29.03
2019-05-02T14:05:12.637Z,10.03
2019-05-02T14:07:42.764Z,9.60
2019-05-02T14:10:14.937Z,10.33
2019-05-02T14:12:58.848Z,11.47
2019-05-02T14:15:27.389Z,10.70
2019-05-02T14:17:54.033Z,10.63
2019-05-02T14:20:22.427Z,16.50
2019-05-02T14:22:49.137Z,8.53
2019-05-02T14:25:15.987Z,8.43
2019-05-02T14:27:46.858Z,7.63
2019-05-02T14:30:12.169Z,8.03
2019-05-02T14:32:39.074Z,7.47
2019-05-02T14:35:11.802Z,7.90
2019-05-02T14:37:38.651Z,8.43
2019-05-02T14:40:08.280Z,8.70
2019-05-02T14:42:34.984Z,8.50
2019-05-02T14:45:11.960Z,8.60
2019-05-02T14:47:32.520Z,8.77
2019-05-02T14:50:02.267Z,7.83
2019-05-02T14:52:27.219Z,7.93
2019-05-02T14:54:55.662Z,7.90
2019-05-02T14:57:27.117Z,8.17
2019-05-02T14:59:59.172Z,10.23
2019-05-02T15:02:22.954Z,8.30
2019-05-02T15:04:49.821Z,8.67
2019-05-02T15:07:17.705Z,13.43
2019-05-02T15:09:44.866Z,9.73
2019-05-02T15:12:16.006Z,10.00
2019-05-02T15:14:40.368Z,8.87
2019-05-02T15:17:07.405Z,10.03
2019-05-02T15:19:34.156Z,10.03
2019-05-02T15:22:02.158Z,10.23
2019-05-02T15:24:33.459Z,11.97
2019-05-02T15:26:57.518Z,12.70
2019-05-02T15:29:27.027Z,14.80
2019-05-02T15:31:58.049Z,12.43
2019-05-02T15:34:27.711Z,12.93
2019-05-02T15:36:54.439Z,12.70
2019-05-02T15:41:49.572Z,14.83
2019-05-02T15:44:18.887Z,13.00
2019-05-02T15:46:44.987Z,13.13
2019-05-02T15:49:12.307Z,13.93
2019-05-02T15:51:45.019Z,13.00
2019-05-02T15:54:12.384Z,16.33
2019-05-02T15:57:00.058Z,13.37
2019-05-02T15:59:32.402Z,12.73
2019-05-02T16:02:02.924Z,15.47
2019-05-02T16:04:34.044Z,14.47
2019-05-02T16:07:06.883Z,13.20
2019-05-02T16:09:29.290Z,12.47
2019-05-02T16:11:57.095Z,13.70
2019-05-02T16:14:27.072Z,13.93
2019-05-02T16:16:52.319Z,12.53
2019-05-02T16:19:27.124Z,13.60
2019-05-02T16:21:49.437Z,13.43
2019-05-02T16:24:19.809Z,13.00
2019-05-02T16:26:48.940Z,14.50
2019-05-02T16:29:23.311Z,15.73
2019-05-02T16:31:49.408Z,14.20
2019-05-02T16:34:16.264Z,15.83
2019-05-02T16:36:43.065Z,17.50
2019-05-02T16:39:13.248Z,12.63
2019-05-02T16:41:41.378Z,13.37
2019-05-02T16:44:08.251Z,11.63
2019-05-02T16:46:34.904Z,12.53
2019-05-02T16:49:01.572Z,13.70
2019-05-02T16:51:32.371Z,10.83
2019-05-02T16:54:01.644Z,12.33
2019-05-02T16:56:25.355Z,11.60
2019-05-02T16:58:52.256Z,13.20
2019-05-02T17:01:26.600Z,12.60
2019-05-02T17:03:47.417Z,12.10
2019-05-02T17:06:17.024Z,12.00
2019-05-02T17:08:44.480Z,11.93
2019-05-02T17:11:15.636Z,11.17
2019-05-02T17:13:41.838Z,11.23
2019-05-02T17:16:15.162Z,10.63
2019-05-02T17:18:37.023Z,10.93
2019-05-02T17:21:03.755Z,11.57
2019-05-02T17:23:30.383Z,10.90
2019-05-02T17:25:57.069Z,11.70
2019-05-02T17:28:23.711Z,11.77
2019-05-02T17:30:52.304Z,10.73
2019-05-02T17:33:18.925Z,10.47
2019-05-02T17:35:49.325Z,10.27
2019-05-02T17:38:14.085Z,10.10
2019-05-02T17:40:42.658Z,10.23
2019-05-02T17:43:09.268Z,10.80
2019-05-02T17:45:38.620Z,10.27
2019-05-02T17:48:09.891Z,9.97
2019-05-02T17:50:56.002Z,10.00
2019-05-02T17:53:19.812Z,9.93
2019-05-02T17:55:46.500Z,9.30
2019-05-02T17:58:16.398Z,10.07
2019-05-02T18:00:47.470Z,27.10
2019-05-02T18:03:15.486Z,25.87
2019-05-02T18:05:42.336Z,37.20
2019-05-02T18:08:10.867Z,39.43
2019-05-02T18:10:37.743Z,39.20
2019-05-02T18:13:04.610Z,41.37
2019-05-02T18:15:34.928Z,48.20
2019-05-02T18:18:06.473Z,50.83
2019-05-02T18:20:28.260Z,46.33
2019-05-02T18:22:54.949Z,48.80
2019-05-02T18:25:25.156Z,47.47
2019-05-02T18:27:51.791Z,45.97
2019-05-02T18:30:24.894Z,48.13
2019-05-02T18:32:47.920Z,49.07
2019-05-02T18:35:14.574Z,49.50
2019-05-02T18:37:42.771Z,52.43
2019-05-02T18:40:11.903Z,47.53
2019-05-02T18:42:38.594Z,55.90
2019-05-02T18:45:08.860Z,58.97
2019-05-02T18:47:35.511Z,53.40
2019-05-02T18:50:06.161Z,52.43
2019-05-02T18:52:38.074Z,58.40
2019-05-02T18:55:01.634Z,60.00
2019-05-02T18:57:29.665Z,52.33
2019-05-02T18:59:58.173Z,57.30
2019-05-02T19:02:26.309Z,51.67
2019-05-02T19:04:53.418Z,60.50
2019-05-02T19:07:30.862Z,49.80
2019-05-02T19:09:51.412Z,52.83
2019-05-02T19:12:22.432Z,54.80
2019-05-02T19:14:45.548Z,53.53
2019-05-02T19:17:12.350Z,52.70
2019-05-02T19:19:39.070Z,56.40
2019-05-02T19:22:07.338Z,55.17
2019-05-02T19:24:36.458Z,52.20
2019-05-02T19:27:02.816Z,58.37
2019-05-02T19:29:31.753Z,53.27
2019-05-02T19:31:58.527Z,46.80
2019-05-02T19:34:26.979Z,48.90
2019-05-02T19:36:57.897Z,48.77
2019-05-02T19:39:24.213Z,48.70
2019-05-02T19:41:52.024Z,44.03
2019-05-02T19:44:21.206Z,44.50
2019-05-02T19:46:47.610Z,40.63
2019-05-02T19:49:16.315Z,39.70
2019-05-02T19:51:43.633Z,39.23
2019-05-02T19:54:12.473Z,43.93
2019-05-02T19:56:43.951Z,40.03
2019-05-02T19:59:07.945Z,29.07
2019-05-02T20:01:35.403Z,20.47
2019-05-02T20:04:06.074Z,18.60
2019-05-02T20:06:32.549Z,15.27
2019-05-02T20:09:04.721Z,12.77
2019-05-02T20:11:32.863Z,11.43
2019-05-02T20:14:00.501Z,11.97
2019-05-02T20:16:31.914Z,11.40
2019-05-02T20:18:58.736Z,11.67
2019-05-02T20:21:33.593Z,11.23
2019-05-02T20:24:03.516Z,12.93
2019-05-02T20:26:29.323Z,12.90
2019-05-02T20:28:55.986Z,12.73
2019-05-02T20:31:23.008Z,14.17
2019-05-02T20:33:51.898Z,14.53
2019-05-02T20:36:18.228Z,13.50
2019-05-02T20:38:44.897Z,12.20
2019-05-02T20:41:12.723Z,13.03
2019-05-02T20:43:42.803Z,14.13
2019-05-02T20:46:08.335Z,14.83
2019-05-02T20:48:35.015Z,18.47
2019-05-02T20:51:02.670Z,13.93
2019-05-02T20:53:33.415Z,15.10
2019-05-02T20:55:58.279Z,15.90
2019-05-02T20:58:24.957Z,15.40
2019-05-02T21:01:04.767Z,16.80
2019-05-02T21:03:20.604Z,18.43
2019-05-02T21:06:04.361Z,17.23
2019-05-02T21:08:35.004Z,16.07
2019-05-02T21:11:04.644Z,17.97
2019-05-02T21:13:32.776Z,16.50
2019-05-02T21:16:01.685Z,21.13
2019-05-02T21:18:28.461Z,17.30
2019-05-02T21:20:55.445Z,18.50
2019-05-02T21:23:22.063Z,16.83
2019-05-02T21:25:49.276Z,18.13
2019-05-02T21:28:16.426Z,18.10
2019-05-02T21:30:43.394Z,18.67
2019-05-02T21:33:37.256Z,19.20
2019-05-02T21:36:04.887Z,17.37
2019-05-02T21:38:31.983Z,14.97
2019-05-02T21:40:58.752Z,17.43
2019-05-02T21:43:25.474Z,19.90
2019-05-02T21:45:52.092Z,17.63
2019-05-02T21:48:19.168Z,23.10
2019-05-02T21:51:04.454Z,19.63
2019-05-02T21:53:33.012Z,18.70
2019-05-02T21:56:04.737Z,16.97
2019-05-02T21:58:32.325Z,17.10
2019-05-02T22:01:03.005Z,18.10
2019-05-02T22:03:29.669Z,16.80
2019-05-02T22:05:56.528Z,16.00
2019-05-02T22:08:23.188Z,16.77
2019-05-02T22:10:52.002Z,17.03
2019-05-02T22:13:18.612Z,15.80
2019-05-02T22:15:45.276Z,15.27
2019-05-02T22:18:13.610Z,14.93
2019-05-02T22:20:40.388Z,15.67
2019-05-02T22:23:07.017Z,14.20
2019-05-02T22:25:34.009Z,14.10
2019-05-02T22:28:01.960Z,14.70
2019-05-02T22:30:28.811Z,14.70
2019-05-02T22:32:55.451Z,14.20
2019-05-02T22:35:22.097Z,13.03
2019-05-02T22:37:50.657Z,14.37
2019-05-02T22:40:17.689Z,13.17
2019-05-02T22:42:44.877Z,17.80
2019-05-02T22:45:12.536Z,14.23
2019-05-02T22:47:39.376Z,15.20
2019-05-02T22:50:06.525Z,13.57
2019-05-02T22:52:33.155Z,13.80
2019-05-02T22:54:59.847Z,14.57
2019-05-02T22:57:26.539Z,13.60
2019-05-02T22:59:53.382Z,17.13
2019-05-02T23:02:21.817Z,14.30
2019-05-02T23:04:48.488Z,12.03
2019-05-02T23:07:15.137Z,11.77
2019-05-02T23:09:43.613Z,11.77
2019-05-02T23:12:10.787Z,12.90
2019-05-02T23:14:37.468Z,10.77
2019-05-02T23:17:04.112Z,10.13
2019-05-02T23:19:31.735Z,11.17
2019-05-02T23:21:58.552Z,10.33
2019-05-02T23:24:39.158Z,10.80
2019-05-02T23:27:18.234Z,11.37
2019-05-02T23:29:44.930Z,10.17
2019-05-02T23:32:11.647Z,10.50
2019-05-02T23:34:38.296Z,9.13
2019-05-02T23:37:05.080Z,10.97
2019-05-02T23:39:32.303Z,10.00
2019-05-02T23:41:59.090Z,9.77
2019-05-02T23:44:25.727Z,12.07
2019-05-02T23:46:52.400Z,11.47
2019-05-02T23:49:19.033Z,9.93
2019-05-02T23:51:45.700Z,9.03
2019-05-02T23:54:12.940Z,9.90
2019-05-02T23:56:40.042Z,9.57
2019-05-02T23:59:06.651Z,10.60
